Time;durP1;ratioP1;P1;durP2;ratioP2;P2;SDS_P1;SDS_P2;PMS_P1;PMS_P2;Temp;Humidity;BMP_temperature;BMP_pressure;BME280_temperature;BME280_humidity;BME280_pressure;Samples;Min_cycle;Max_cycle;Signal;HPM_P1;HPM_P2
2021/03/27 00:00:58;;;;;;;;;;;10.30;89.40;;;;;;5085679;28;20001;-64
2021/03/27 00:03:33;;;;;;;;;;;9.80;83.90;;;;;;5083568;28;19931;-63
2021/03/27 00:05:58;;;;;;;;;;;10.30;82.70;;;;;;5101195;27;20327;-65
2021/03/27 00:08:44;;;;;;;;;;;11.40;86.40;;;;;;5077770;28;20024;-64
2021/03/27 00:11:13;;;;;;;;;;;10.60;82.40;;;;;;5085433;28;19912;-64
2021/03/27 00:13:45;;;;;;;;;;;11.30;86.60;;;;;;5084477;28;20352;-64
2021/03/27 00:16:29;;;;;;;;;;;11.10;82.70;;;;;;5079151;28;19920;-64
2021/03/27 00:18:58;;;;;;;;;;;11.30;82.80;;;;;;5073432;28;19917;-64
2021/03/27 00:21:36;;;;;;;;;;;12.30;87.20;;;;;;5083076;28;19920;-64
2021/03/27 00:24:05;;;;;;;;;;;11.00;82.40;;;;;;5063749;28;19981;-64
2021/03/27 00:26:30;;;;;;;;;;;11.30;86.50;;;;;;5065251;28;19912;-65
2021/03/27 00:29:12;;;;;;;;;;;11.90;87.30;;;;;;5080230;28;19922;-64
2021/03/27 00:31:40;;;;;;;;;;;11.20;83.50;;;;;;5080861;28;19912;-64
2021/03/27 00:34:07;;;;;;;;;;;11.70;86.70;;;;;;5065438;28;19920;-64
2021/03/27 00:36:35;;;;;;;;;;;11.40;86.60;;;;;;5083846;28;20208;-65
2021/03/27 00:39:06;;;;;;;;;;;11.50;87.10;;;;;;5068152;28;20401;-64
2021/03/27 00:41:40;;;;;;;;;;;11.60;83.40;;;;;;5080765;28;19920;-64
2021/03/27 00:44:09;;;;;;;;;;;11.40;83.70;;;;;;5084336;28;19916;-65
2021/03/27 00:46:36;;;;;;;;;;;11.60;88.00;;;;;;5082191;28;19922;-64
2021/03/27 00:49:06;;;;;;;;;;;12.50;88.80;;;;;;5084885;28;19913;-64
2021/03/27 00:51:35;;;;;;;;;;;11.10;87.80;;;;;;5085126;28;19912;-64
2021/03/27 00:54:19;;;;;;;;;;;11.30;87.70;;;;;;5081261;28;19950;-65
2021/03/27 00:56:44;;;;;;;;;;;11.50;84.50;;;;;;5069268;28;20039;-64
2021/03/27 00:59:36;;;;;;;;;;;11.40;87.70;;;;;;5081709;28;20842;-64
2021/03/27 01:02:06;;;;;;;;;;;11.10;83.70;;;;;;5053225;28;19988;-64
2021/03/27 01:04:32;;;;;;;;;;;11.40;87.60;;;;;;5086311;28;19916;-65
2021/03/27 01:07:03;;;;;;;;;;;11.50;87.30;;;;;;5077185;28;20352;-64
2021/03/27 01:09:30;;;;;;;;;;;11.30;87.00;;;;;;5083077;28;19920;-65
2021/03/27 01:12:05;;;;;;;;;;;11.90;87.70;;;;;;5081973;28;19916;-65
2021/03/27 01:14:39;;;;;;;;;;;11.10;82.60;;;;;;5080415;28;19912;-64
2021/03/27 01:17:06;;;;;;;;;;;11.40;86.90;;;;;;5087708;28;20120;-64
2021/03/27 01:19:37;;;;;;;;;;;11.30;86.90;;;;;;5077016;28;19965;-64
2021/03/27 01:22:05;;;;;;;;;;;11.30;82.90;;;;;;5079284;28;19966;-64
2021/03/27 01:24:31;;;;;;;;;;;11.20;86.20;;;;;;5081299;28;19952;-65
2021/03/27 01:27:22;;;;;;;;;;;11.40;86.90;;;;;;5076375;28;20327;-64
2021/03/27 01:29:51;;;;;;;;;;;11.10;83.80;;;;;;5077204;28;20393;-64
2021/03/27 01:32:18;;;;;;;;;;;11.00;84.50;;;;;;5067925;28;19912;-64
2021/03/27 01:34:48;;;;;;;;;;;11.60;89.10;;;;;;5079157;28;19929;-64
2021/03/27 01:37:17;;;;;;;;;;;11.20;89.60;;;;;;5070994;28;19915;-63
2021/03/27 01:39:42;;;;;;;;;;;11.10;89.50;;;;;;5078651;28;19920;-63
2021/03/27 01:42:26;;;;;;;;;;;11.70;90.10;;;;;;5081261;28;19938;-63
2021/03/27 01:45:00;;;;;;;;;;;10.70;86.40;;;;;;5077913;28;19912;-64
2021/03/27 01:47:34;;;;;;;;;;;10.70;90.20;;;;;;5079565;28;19968;-64
2021/03/27 01:50:10;;;;;;;;;;;10.60;87.20;;;;;;5086239;28;19920;-64
2021/03/27 01:52:54;;;;;;;;;;;10.50;87.30;;;;;;5079322;28;19956;-64
2021/03/27 01:55:32;;;;;;;;;;;10.50;87.60;;;;;;5076283;28;20308;-64
2021/03/27 01:58:00;;;;;;;;;;;10.60;88.10;;;;;;5084604;28;20313;-63
2021/03/27 02:00:30;;;;;;;;;;;10.60;88.30;;;;;;5083727;28;20005;-64
2021/03/27 02:03:05;;;;;;;;;;;10.90;90.90;;;;;;5087598;28;20055;-64
2021/03/27 02:05:33;;;;;;;;;;;10.80;87.20;;;;;;5086633;28;19960;-64
2021/03/27 02:08:04;;;;;;;;;;;11.10;90.40;;;;;;5082158;28;19912;-64
2021/03/27 02:10:39;;;;;;;;;;;11.30;90.20;;;;;;5086549;28;19915;-63
2021/03/27 02:13:20;;;;;;;;;;;11.40;90.40;;;;;;5067475;28;19920;-64
2021/03/27 02:16:05;;;;;;;;;;;10.90;86.70;;;;;;5068196;28;19912;-65
2021/03/27 02:18:33;;;;;;;;;;;10.80;87.10;;;;;;5081923;28;19912;-65
2021/03/27 02:20:59;;;;;;;;;;;10.70;87.70;;;;;;5083453;28;19967;-64
2021/03/27 02:23:43;;;;;;;;;;;11.00;90.80;;;;;;5086900;28;20540;-64
2021/03/27 02:26:09;;;;;;;;;;;10.60;88.70;;;;;;5081462;28;19969;-64
2021/03/27 02:28:34;;;;;;;;;;;10.70;91.10;;;;;;5086360;28;19912;-63
2021/03/27 02:31:06;;;;;;;;;;;10.90;91.50;;;;;;5087012;28;20561;-63
2021/03/27 02:33:39;;;;;;;;;;;10.40;89.70;;;;;;5084127;28;19955;-64
2021/03/27 02:36:17;;;;;;;;;;;10.30;90.00;;;;;;5086875;28;19916;-64
2021/03/27 02:38:43;;;;;;;;;;;10.10;90.20;;;;;;5084925;28;20663;-64
2021/03/27 02:41:27;;;;;;;;;;;10.20;91.80;;;;;;5086850;28;19998;-64
2021/03/27 02:44:07;;;;;;;;;;;10.20;90.40;;;;;;5088848;28;21257;-64
2021/03/27 02:46:37;;;;;;;;;;;10.00;90.60;;;;;;5081305;28;19923;-64
2021/03/27 02:49:21;;;;;;;;;;;10.20;92.60;;;;;;5086727;28;20387;-65
2021/03/27 02:52:02;;;;;;;;;;;10.20;91.00;;;;;;5085284;28;19912;-64
2021/03/27 02:54:46;;;;;;;;;;;9.80;92.80;;;;;;5081159;28;20031;-64
2021/03/27 02:57:31;;;;;;;;;;;9.70;91.40;;;;;;5081092;28;19934;-63
2021/03/27 03:00:19;;;;;;;;;;;10.50;93.60;;;;;;5072278;28;19920;-63
2021/03/27 03:03:03;;;;;;;;;;;9.80;92.10;;;;;;5069408;28;19935;-64
2021/03/27 03:05:28;;;;;;;;;;;10.00;92.20;;;;;;5092243;28;19923;-64
2021/03/27 03:08:12;;;;;;;;;;;10.10;93.60;;;;;;5086202;28;19916;-64
2021/03/27 03:10:42;;;;;;;;;;;9.70;92.50;;;;;;5085464;28;19916;-64
2021/03/27 03:13:16;;;;;;;;;;;9.70;94.60;;;;;;5090744;28;19964;-65
2021/03/27 03:16:01;;;;;;;;;;;9.70;93.00;;;;;;5083180;28;20490;-64
2021/03/27 03:18:40;;;;;;;;;;;9.60;93.20;;;;;;5087877;28;19913;-64
2021/03/27 03:21:24;;;;;;;;;;;9.60;93.50;;;;;;5088909;28;20426;-65
2021/03/27 03:23:58;;;;;;;;;;;9.50;93.80;;;;;;5085841;28;19920;-65
2021/03/27 03:26:43;;;;;;;;;;;9.50;93.90;;;;;;5108065;27;19924;-64
2021/03/27 03:29:14;;;;;;;;;;;9.30;94.00;;;;;;5088706;28;19946;-65
2021/03/27 03:31:48;;;;;;;;;;;9.60;94.20;;;;;;5082757;28;19921;-65
2021/03/27 03:34:13;;;;;;;;;;;9.40;94.30;;;;;;5091240;28;20609;-64
2021/03/27 03:36:48;;;;;;;;;;;9.60;96.10;;;;;;5065795;28;20019;-64
2021/03/27 03:39:26;;;;;;;;;;;9.50;94.80;;;;;;5088951;28;19927;-64
2021/03/27 03:42:07;;;;;;;;;;;9.30;94.70;;;;;;5070879;28;19927;-65
2021/03/27 03:44:42;;;;;;;;;;;9.70;96.80;;;;;;5085140;28;20369;-64
2021/03/27 03:47:14;;;;;;;;;;;9.40;95.40;;;;;;5078357;28;19919;-64
2021/03/27 03:49:47;;;;;;;;;;;10.30;97.50;;;;;;5087334;28;19939;-65
2021/03/27 03:52:19;;;;;;;;;;;10.10;97.40;;;;;;5082288;28;19995;-64
2021/03/27 03:54:47;;;;;;;;;;;9.50;97.60;;;;;;5085265;28;19920;-64
2021/03/27 03:57:15;;;;;;;;;;;9.70;96.60;;;;;;5083261;28;20024;-64
2021/03/27 03:59:45;;;;;;;;;;;9.70;96.60;;;;;;5089717;28;20360;-64
2021/03/27 04:02:21;;;;;;;;;;;9.90;99.10;;;;;;5082662;28;19924;-65
2021/03/27 04:04:48;;;;;;;;;;;9.60;98.00;;;;;;5079200;28;20382;-64
2021/03/27 04:07:18;;;;;;;;;;;9.90;99.90;;;;;;5083400;28;20295;-63
2021/03/27 04:09:51;;;;;;;;;;;10.00;99.90;;;;;;5081244;28;19921;-64
2021/03/27 04:12:31;;;;;;;;;;;9.50;99.90;;;;;;5069479;28;20371;-64
2021/03/27 04:14:59;;;;;;;;;;;9.50;99.90;;;;;;5082310;28;19916;-65
2021/03/27 04:17:33;;;;;;;;;;;9.30;99.90;;;;;;5085286;28;19962;-65
2021/03/27 04:20:04;;;;;;;;;;;9.30;99.90;;;;;;5086569;28;19926;-64
2021/03/27 04:22:38;;;;;;;;;;;9.50;99.90;;;;;;5077689;28;19916;-66
2021/03/27 04:25:06;;;;;;;;;;;9.20;99.90;;;;;;5063756;28;19962;-63
2021/03/27 04:27:33;;;;;;;;;;;9.30;99.90;;;;;;5082904;28;19915;-64
2021/03/27 04:30:02;;;;;;;;;;;9.40;99.90;;;;;;5083663;28;19916;-64
2021/03/27 04:32:30;;;;;;;;;;;9.40;99.90;;;;;;5087375;28;19920;-65
2021/03/27 04:35:14;;;;;;;;;;;8.90;99.90;;;;;;5079692;28;19923;-64
2021/03/27 04:37:47;;;;;;;;;;;8.80;99.90;;;;;;5085533;28;21121;-65
2021/03/27 04:40:24;;;;;;;;;;;9.20;99.90;;;;;;5081820;28;19947;-64
2021/03/27 04:42:56;;;;;;;;;;;8.80;99.90;;;;;;5082253;28;20655;-64
2021/03/27 04:45:26;;;;;;;;;;;8.80;99.90;;;;;;5083680;28;19944;-65
2021/03/27 04:48:12;;;;;;;;;;;8.90;99.90;;;;;;5063863;28;19953;-65
2021/03/27 04:50:42;;;;;;;;;;;8.90;99.90;;;;;;5057189;28;19916;-65
2021/03/27 04:53:15;;;;;;;;;;;9.10;99.90;;;;;;5084071;28;20754;-65
2021/03/27 04:55:59;;;;;;;;;;;8.80;99.90;;;;;;5079951;28;19981;-63
2021/03/27 04:58:43;;;;;;;;;;;8.80;99.90;;;;;;5083822;28;20018;-64
2021/03/27 05:01:11;;;;;;;;;;;8.90;99.90;;;;;;5082404;28;19912;-66
2021/03/27 05:03:42;;;;;;;;;;;8.70;99.90;;;;;;5077422;28;19950;-64
2021/03/27 05:06:17;;;;;;;;;;;9.00;99.90;;;;;;5085278;28;19916;-65
2021/03/27 05:08:42;;;;;;;;;;;8.50;99.90;;;;;;5077697;28;19920;-65
2021/03/27 05:11:14;;;;;;;;;;;9.60;99.90;;;;;;5084422;28;19920;-65
2021/03/27 05:13:53;;;;;;;;;;;8.70;99.90;;;;;;5085228;28;20356;-65
2021/03/27 05:16:22;;;;;;;;;;;8.50;99.90;;;;;;5077043;28;20326;-65
2021/03/27 05:19:06;;;;;;;;;;;8.60;99.90;;;;;;5084010;28;19977;-64
2021/03/27 05:21:37;;;;;;;;;;;8.60;99.90;;;;;;5079566;28;19916;-65
2021/03/27 05:24:18;;;;;;;;;;;8.40;99.90;;;;;;5080165;28;20379;-64
2021/03/27 05:26:55;;;;;;;;;;;8.60;99.90;;;;;;5082893;28;20438;-63
2021/03/27 05:29:24;;;;;;;;;;;8.40;99.90;;;;;;5059219;28;20587;-65
2021/03/27 05:32:00;;;;;;;;;;;8.30;99.90;;;;;;5080147;28;19913;-65
2021/03/27 05:34:36;;;;;;;;;;;8.30;99.90;;;;;;5100954;27;20011;-64
2021/03/27 05:37:20;;;;;;;;;;;8.50;99.90;;;;;;5081391;28;19999;-66
2021/03/27 05:40:02;;;;;;;;;;;8.50;99.90;;;;;;5088104;28;20379;-63
2021/03/27 05:42:27;;;;;;;;;;;8.00;99.90;;;;;;5081105;28;20272;-65
2021/03/27 05:44:53;;;;;;;;;;;8.20;99.90;;;;;;5079734;28;19920;-63
2021/03/27 05:47:52;;;;;;;;;;;8.60;99.90;;;;;;5086388;28;19916;-64
2021/03/27 05:50:36;;;;;;;;;;;8.40;99.90;;;;;;5080770;28;19916;-63
2021/03/27 05:53:20;;;;;;;;;;;8.20;99.90;;;;;;5081441;28;19918;-64
2021/03/27 05:55:54;;;;;;;;;;;8.30;99.90;;;;;;5080427;28;19912;-63
2021/03/27 05:58:32;;;;;;;;;;;8.50;99.90;;;;;;5075293;28;20435;-65
2021/03/27 06:00:57;;;;;;;;;;;8.00;99.90;;;;;;5081678;28;20057;-66
2021/03/27 06:03:42;;;;;;;;;;;8.30;99.90;;;;;;5084482;28;20770;-65
2021/03/27 06:06:10;;;;;;;;;;;8.60;99.90;;;;;;5078360;28;19916;-63
2021/03/27 06:08:42;;;;;;;;;;;8.20;99.90;;;;;;5085881;28;19958;-66
2021/03/27 06:11:07;;;;;;;;;;;8.40;99.90;;;;;;5078208;28;19923;-62
2021/03/27 06:13:51;;;;;;;;;;;8.40;99.90;;;;;;5084511;28;19912;-64
2021/03/27 06:16:17;;;;;;;;;;;8.40;99.90;;;;;;5082193;28;19912;-64
2021/03/27 06:19:09;;;;;;;;;;;8.50;99.90;;;;;;5065684;28;19970;-64
2021/03/27 06:21:39;;;;;;;;;;;8.30;99.90;;;;;;5039293;28;19928;-65
2021/03/27 06:24:34;;;;;;;;;;;8.60;99.90;;;;;;5081013;28;19924;-63
2021/03/27 06:27:05;;;;;;;;;;;8.30;99.90;;;;;;5079439;28;19920;-64
2021/03/27 06:29:31;;;;;;;;;;;8.30;99.90;;;;;;5068097;28;20255;-64
2021/03/27 06:32:15;;;;;;;;;;;8.20;99.90;;;;;;5077714;28;19924;-62
2021/03/27 06:34:46;;;;;;;;;;;7.70;99.90;;;;;;5079456;28;19923;-61
2021/03/27 06:37:21;;;;;;;;;;;7.40;99.90;;;;;;5080698;28;20418;-63
2021/03/27 06:39:49;;;;;;;;;;;6.90;99.90;;;;;;5080805;28;19961;-65
2021/03/27 06:42:34;;;;;;;;;;;7.10;99.90;;;;;;5094043;28;19924;-65
2021/03/27 06:45:18;;;;;;;;;;;6.80;99.90;;;;;;5071600;28;19915;-64
2021/03/27 06:47:46;;;;;;;;;;;6.30;99.90;;;;;;5067881;28;19966;-62
2021/03/27 06:50:31;;;;;;;;;;;6.30;99.90;;;;;;5069740;28;19923;-63
2021/03/27 06:53:13;;;;;;;;;;;6.10;99.90;;;;;;5082979;28;20447;-63
2021/03/27 06:55:38;;;;;;;;;;;6.00;99.90;;;;;;5079214;28;19973;-66
2021/03/27 06:58:10;;;;;;;;;;;6.60;99.90;;;;;;5084780;28;19920;-64
2021/03/27 07:00:38;;;;;;;;;;;6.10;99.90;;;;;;5082335;28;19922;-64
2021/03/27 07:03:16;;;;;;;;;;;5.90;99.90;;;;;;5066176;28;19924;-64
2021/03/27 07:06:00;;;;;;;;;;;5.70;99.90;;;;;;5085719;28;19923;-64
2021/03/27 07:08:26;;;;;;;;;;;5.90;99.90;;;;;;5087090;28;19922;-65
2021/03/27 07:11:16;;;;;;;;;;;6.10;99.90;;;;;;5073217;28;19915;-64
2021/03/27 07:14:00;;;;;;;;;;;5.90;99.90;;;;;;5086319;28;19947;-62
2021/03/27 07:16:30;;;;;;;;;;;5.60;99.90;;;;;;5081622;28;19916;-65
2021/03/27 07:19:23;;;;;;;;;;;6.20;99.90;;;;;;5084287;28;19916;-64
2021/03/27 07:22:21;;;;;;;;;;;5.90;99.90;;;;;;5080792;28;19965;-62
2021/03/27 07:25:07;;;;;;;;;;;5.80;99.90;;;;;;5034299;28;19913;-65
2021/03/27 07:27:46;;;;;;;;;;;6.00;99.90;;;;;;5071181;28;20003;-63
2021/03/27 07:30:41;;;;;;;;;;;5.90;99.90;;;;;;5082311;28;19926;-63
2021/03/27 07:33:25;;;;;;;;;;;6.00;99.90;;;;;;4980520;28;20004;-62
2021/03/27 07:36:13;;;;;;;;;;;6.10;99.90;;;;;;5088560;28;20372;-65
2021/03/27 07:38:42;;;;;;;;;;;6.40;99.90;;;;;;5066244;28;19957;-65
2021/03/27 07:41:35;;;;;;;;;;;6.60;99.90;;;;;;5065772;28;20637;-62
2021/03/27 07:44:20;;;;;;;;;;;6.80;99.90;;;;;;5086772;28;19923;-63
2021/03/27 07:47:04;;;;;;;;;;;7.00;99.90;;;;;;5077377;28;19916;-63
2021/03/27 07:49:48;;;;;;;;;;;7.30;99.90;;;;;;5083978;28;20362;-62
2021/03/27 07:52:13;;;;;;;;;;;7.20;99.90;;;;;;5083331;28;19920;-61
2021/03/27 07:54:55;;;;;;;;;;;7.30;99.90;;;;;;5060176;28;19926;-63
2021/03/27 07:57:44;;;;;;;;;;;8.00;99.90;;;;;;5082018;28;19923;-64
2021/03/27 08:00:39;;;;;;;;;;;7.60;99.90;;;;;;5084883;28;20026;-63
2021/03/27 08:03:22;;;;;;;;;;;7.80;99.90;;;;;;5062928;28;20360;-64
2021/03/27 08:05:48;;;;;;;;;;;7.70;99.90;;;;;;5088239;28;19923;-63
2021/03/27 08:08:25;;;;;;;;;;;8.00;99.90;;;;;;5080978;28;19924;-64
2021/03/27 08:11:06;;;;;;;;;;;7.40;99.90;;;;;;5080364;28;20453;-64
2021/03/27 08:13:35;;;;;;;;;;;7.80;99.90;;;;;;5072891;28;19969;-64
2021/03/27 08:16:28;;;;;;;;;;;7.90;99.90;;;;;;5081878;28;20002;-66
2021/03/27 08:18:58;;;;;;;;;;;7.90;99.90;;;;;;5083063;28;20011;-65
2021/03/27 08:21:29;;;;;;;;;;;7.90;99.90;;;;;;5078630;28;19912;-63
2021/03/27 08:24:07;;;;;;;;;;;8.00;99.90;;;;;;5077686;28;19920;-63
2021/03/27 08:26:48;;;;;;;;;;;7.80;99.90;;;;;;5071601;28;19916;-64
2021/03/27 08:29:28;;;;;;;;;;;7.40;99.90;;;;;;5080136;28;19923;-64
2021/03/27 08:32:03;;;;;;;;;;;7.50;99.90;;;;;;5083300;28;20032;-64
2021/03/27 08:34:46;;;;;;;;;;;7.70;99.90;;;;;;5084873;28;19912;-63
2021/03/27 08:37:12;;;;;;;;;;;7.50;99.90;;;;;;5098091;27;19951;-63
2021/03/27 08:39:56;;;;;;;;;;;7.40;99.90;;;;;;5078856;28;20351;-63
2021/03/27 08:42:40;;;;;;;;;;;7.50;99.90;;;;;;5084285;28;19977;-63
2021/03/27 08:45:05;;;;;;;;;;;7.30;99.90;;;;;;5059625;28;19920;-65
2021/03/27 08:47:36;;;;;;;;;;;8.20;99.90;;;;;;5084387;28;19927;-63
2021/03/27 08:50:17;;;;;;;;;;;7.60;99.90;;;;;;5084266;28;20348;-64
2021/03/27 08:52:42;;;;;;;;;;;6.90;99.90;;;;;;5079232;28;19912;-62
2021/03/27 08:55:11;;;;;;;;;;;7.20;99.90;;;;;;5067959;28;19920;-64
2021/03/27 08:57:36;;;;;;;;;;;7.10;99.90;;;;;;5063204;28;20621;-63
2021/03/27 09:00:20;;;;;;;;;;;7.60;99.90;;;;;;5082661;28;20011;-62
2021/03/27 09:02:52;;;;;;;;;;;7.40;99.90;;;;;;5080863;28;19920;-65
2021/03/27 09:05:36;;;;;;;;;;;7.50;99.90;;;;;;5079005;28;19913;-63
2021/03/27 09:08:16;;;;;;;;;;;7.60;99.90;;;;;;5079144;28;19916;-65
2021/03/27 09:10:45;;;;;;;;;;;7.20;99.90;;;;;;5094532;27;19916;-64
2021/03/27 09:13:20;;;;;;;;;;;7.40;99.90;;;;;;5076683;28;19923;-63
2021/03/27 09:15:48;;;;;;;;;;;7.50;99.90;;;;;;5082138;28;19930;-63
2021/03/27 09:18:32;;;;;;;;;;;7.20;99.90;;;;;;5079392;28;19923;-63
2021/03/27 09:21:06;;;;;;;;;;;7.30;99.90;;;;;;5080338;28;19919;-63
2021/03/27 09:23:52;;;;;;;;;;;7.60;99.90;;;;;;5082856;28;20375;-63
2021/03/27 09:26:27;;;;;;;;;;;7.20;99.90;;;;;;5065197;28;19973;-63
2021/03/27 09:28:52;;;;;;;;;;;7.20;99.90;;;;;;5099776;27;19951;-64
2021/03/27 09:31:36;;;;;;;;;;;8.30;99.90;;;;;;5079714;28;20015;-64
2021/03/27 09:34:10;;;;;;;;;;;7.40;99.90;;;;;;5066135;28;19916;-65
2021/03/27 09:36:45;;;;;;;;;;;7.30;99.90;;;;;;5079906;28;19916;-63
2021/03/27 09:39:11;;;;;;;;;;;7.30;99.90;;;;;;5076090;28;20513;-63
2021/03/27 09:42:08;;;;;;;;;;;7.50;99.90;;;;;;5080606;28;19919;-63
2021/03/27 09:44:40;;;;;;;;;;;7.40;99.90;;;;;;5023537;28;20024;-64
2021/03/27 09:47:18;;;;;;;;;;;7.60;99.90;;;;;;5076229;28;19995;-65
2021/03/27 09:49:58;;;;;;;;;;;7.40;99.90;;;;;;5083138;28;19922;-65
2021/03/27 09:52:29;;;;;;;;;;;7.50;99.90;;;;;;5079338;28;20394;-64
2021/03/27 09:55:07;;;;;;;;;;;7.90;99.90;;;;;;5079401;28;19999;-64
2021/03/27 09:57:46;;;;;;;;;;;8.20;99.90;;;;;;5082139;28;19928;-64
2021/03/27 10:00:14;;;;;;;;;;;8.10;99.90;;;;;;5074415;28;19972;-64
2021/03/27 10:02:58;;;;;;;;;;;8.20;99.90;;;;;;5078761;28;19920;-63
2021/03/27 10:05:33;;;;;;;;;;;8.20;99.90;;;;;;5080197;28;19916;-66
2021/03/27 10:08:04;;;;;;;;;;;8.10;99.90;;;;;;5062212;28;19919;-63
2021/03/27 10:10:30;;;;;;;;;;;8.00;99.90;;;;;;5082418;28;19916;-62
2021/03/27 10:13:13;;;;;;;;;;;7.80;99.90;;;;;;5076453;28;19943;-64
2021/03/27 10:15:42;;;;;;;;;;;8.10;99.90;;;;;;5078461;28;19916;-63
2021/03/27 10:18:14;;;;;;;;;;;8.80;99.90;;;;;;5080940;28;19955;-64
2021/03/27 10:20:48;;;;;;;;;;;9.10;99.90;;;;;;5080886;28;19923;-64
2021/03/27 10:23:23;;;;;;;;;;;8.80;99.90;;;;;;5086745;28;19942;-65
2021/03/27 10:26:08;;;;;;;;;;;8.90;99.90;;;;;;5086128;28;19938;-63
2021/03/27 10:28:36;;;;;;;;;;;9.10;99.90;;;;;;5083837;28;19920;-67
2021/03/27 10:31:15;;;;;;;;;;;9.30;99.90;;;;;;5082370;28;19923;-62
2021/03/27 10:33:41;;;;;;;;;;;8.90;99.90;;;;;;5080658;28;19916;-62
2021/03/27 10:36:20;;;;;;;;;;;10.30;99.90;;;;;;5085115;28;19922;-63
2021/03/27 10:38:50;;;;;;;;;;;9.60;99.90;;;;;;5084903;28;19912;-65
2021/03/27 10:41:34;;;;;;;;;;;9.90;99.90;;;;;;5079513;28;19912;-63
2021/03/27 10:44:07;;;;;;;;;;;9.90;99.60;;;;;;5084477;28;19924;-63
2021/03/27 10:46:40;;;;;;;;;;;9.60;98.70;;;;;;5080977;28;19944;-62
2021/03/27 10:49:09;;;;;;;;;;;9.60;97.90;;;;;;5083015;28;19917;-63
2021/03/27 10:51:37;;;;;;;;;;;9.50;97.90;;;;;;5083670;28;19927;-63
2021/03/27 10:54:03;;;;;;;;;;;9.60;98.50;;;;;;5078568;28;20050;-63
2021/03/27 10:56:47;;;;;;;;;;;9.40;99.70;;;;;;5069549;28;20377;-63
2021/03/27 10:59:25;;;;;;;;;;;9.20;97.50;;;;;;5081977;28;19916;-62
2021/03/27 11:02:02;;;;;;;;;;;8.90;96.10;;;;;;5082354;28;19923;-65
2021/03/27 11:04:39;;;;;;;;;;;8.80;96.30;;;;;;5085699;28;19916;-63
2021/03/27 11:07:19;;;;;;;;;;;8.60;96.50;;;;;;5081055;28;19916;-63
2021/03/27 11:10:03;;;;;;;;;;;9.20;96.40;;;;;;5082338;28;21222;-63
2021/03/27 11:12:43;;;;;;;;;;;10.80;94.60;;;;;;5088759;28;19990;-63
2021/03/27 11:15:12;;;;;;;;;;;11.90;92.20;;;;;;5064946;28;20252;-64
2021/03/27 11:17:40;;;;;;;;;;;11.70;91.50;;;;;;5086925;28;19923;-64
2021/03/27 11:20:21;;;;;;;;;;;11.70;90.80;;;;;;5067643;28;19970;-63
2021/03/27 11:22:49;;;;;;;;;;;11.20;90.80;;;;;;5078679;28;20376;-65
2021/03/27 11:25:24;;;;;;;;;;;10.30;91.00;;;;;;5090988;28;19920;-66
2021/03/27 11:28:09;;;;;;;;;;;10.40;91.40;;;;;;5064953;28;19920;-64
2021/03/27 11:30:41;;;;;;;;;;;10.10;91.00;;;;;;5069517;28;19920;-63
2021/03/27 11:33:12;;;;;;;;;;;10.10;91.20;;;;;;5084826;28;19919;-63
2021/03/27 11:35:58;;;;;;;;;;;11.20;90.90;;;;;;5065102;28;20279;-63
2021/03/27 11:38:30;;;;;;;;;;;13.10;92.10;;;;;;5060445;28;19947;-62
2021/03/27 11:40:56;;;;;;;;;;;12.80;86.30;;;;;;5081801;28;19939;-62
2021/03/27 11:43:36;;;;;;;;;;;13.30;88.20;;;;;;5075378;28;19939;-63
2021/03/27 11:46:02;;;;;;;;;;;11.90;84.00;;;;;;5111938;27;19931;-63
2021/03/27 11:48:39;;;;;;;;;;;12.10;88.30;;;;;;5079339;28;19913;-61
2021/03/27 11:51:12;;;;;;;;;;;11.90;85.00;;;;;;5082738;28;20371;-62
2021/03/27 11:54:01;;;;;;;;;;;11.70;83.90;;;;;;5082391;28;20430;-62
2021/03/27 11:56:50;;;;;;;;;;;11.60;85.40;;;;;;5042094;28;19920;-62
2021/03/27 12:02:06;;;;;;;;;;;11.50;85.20;;;;;;5086600;28;19991;-61
2021/03/27 12:04:31;;;;;;;;;;;11.80;84.20;;;;;;5080771;28;19922;-61
2021/03/27 12:07:00;;;;;;;;;;;12.70;83.20;;;;;;5086490;28;19916;-62
2021/03/27 12:09:51;;;;;;;;;;;12.90;81.20;;;;;;5080184;28;19923;-62
2021/03/27 12:12:26;;;;;;;;;;;13.10;80.80;;;;;;5072051;28;19935;-63
2021/03/27 12:15:17;;;;;;;;;;;13.10;79.70;;;;;;5085280;28;20395;-61
2021/03/27 12:17:51;;;;;;;;;;;13.10;78.70;;;;;;5061314;28;20344;-61
2021/03/27 12:20:30;;;;;;;;;;;14.00;78.40;;;;;;5083072;28;19916;-63
2021/03/27 12:23:16;;;;;;;;;;;15.50;76.80;;;;;;5084314;28;20006;-63
2021/03/27 12:25:42;;;;;;;;;;;15.70;76.70;;;;;;5069003;28;19986;-62
2021/03/27 12:28:26;;;;;;;;;;;15.70;72.60;;;;;;5084844;28;20402;-63
2021/03/27 12:30:55;;;;;;;;;;;14.80;69.00;;;;;;5080150;28;20733;-62
2021/03/27 12:33:50;;;;;;;;;;;15.20;74.30;;;;;;5059804;28;19916;-62
2021/03/27 12:36:21;;;;;;;;;;;15.60;70.70;;;;;;5014488;28;19996;-63
2021/03/27 12:39:05;;;;;;;;;;;15.30;68.70;;;;;;5062696;28;19908;-63
2021/03/27 12:41:36;;;;;;;;;;;13.60;69.20;;;;;;5055234;28;19962;-63
2021/03/27 12:44:03;;;;;;;;;;;13.10;75.30;;;;;;5084518;28;19916;-62
2021/03/27 12:46:31;;;;;;;;;;;13.70;77.30;;;;;;5062280;28;20398;-64
2021/03/27 12:49:15;;;;;;;;;;;12.70;72.20;;;;;;5084751;28;19917;-62
2021/03/27 12:52:10;;;;;;;;;;;12.50;72.60;;;;;;5065407;28;19916;-62
2021/03/27 12:55:05;;;;;;;;;;;12.20;70.30;;;;;;5059971;28;19912;-63
2021/03/27 12:57:56;;;;;;;;;;;12.30;71.50;;;;;;5070806;28;19919;-62
2021/03/27 13:00:37;;;;;;;;;;;13.00;69.00;;;;;;5024209;28;20550;-62
2021/03/27 13:03:21;;;;;;;;;;;13.70;67.10;;;;;;5064961;28;20019;-63
2021/03/27 13:05:55;;;;;;;;;;;14.10;66.60;;;;;;5084072;28;19978;-63
2021/03/27 13:08:34;;;;;;;;;;;14.50;66.50;;;;;;5082796;28;19912;-62
2021/03/27 13:11:22;;;;;;;;;;;15.30;69.60;;;;;;5076899;28;19920;-63
2021/03/27 13:14:00;;;;;;;;;;;15.40;63.80;;;;;;5042582;28;20049;-61
2021/03/27 13:16:31;;;;;;;;;;;15.90;62.30;;;;;;5085347;28;19923;-61
2021/03/27 13:19:06;;;;;;;;;;;15.80;61.90;;;;;;5086217;28;20649;-63
2021/03/27 13:21:38;;;;;;;;;;;15.20;62.60;;;;;;5086581;28;19916;-61
2021/03/27 13:24:10;;;;;;;;;;;15.80;61.60;;;;;;5079540;28;19920;-61
2021/03/27 13:26:35;;;;;;;;;;;15.70;61.00;;;;;;5065289;28;19920;-61
2021/03/27 13:29:32;;;;;;;;;;;15.80;65.00;;;;;;5083847;28;19919;-62
2021/03/27 13:31:59;;;;;;;;;;;15.80;60.30;;;;;;5079222;28;19916;-63
2021/03/27 13:34:30;;;;;;;;;;;16.30;63.60;;;;;;5076558;28;20018;-63
2021/03/27 13:36:59;;;;;;;;;;;16.90;61.60;;;;;;5089747;27;19924;-63
2021/03/27 13:39:37;;;;;;;;;;;16.80;59.70;;;;;;5085795;28;20007;-63
2021/03/27 13:42:26;;;;;;;;;;;16.50;59.00;;;;;;5065506;28;19916;-62
2021/03/27 13:44:54;;;;;;;;;;;16.40;58.90;;;;;;5068326;28;19973;-62
2021/03/27 13:47:40;;;;;;;;;;;16.30;59.70;;;;;;5084801;28;19957;-61
2021/03/27 13:50:14;;;;;;;;;;;16.30;62.30;;;;;;5080777;28;19919;-61
2021/03/27 13:52:58;;;;;;;;;;;16.70;62.30;;;;;;5083533;28;20368;-63
2021/03/27 13:55:42;;;;;;;;;;;16.90;57.70;;;;;;5084251;28;19954;-62
2021/03/27 13:58:22;;;;;;;;;;;16.80;58.00;;;;;;5084915;28;19927;-61
2021/03/27 14:00:53;;;;;;;;;;;16.00;58.10;;;;;;5085710;28;19916;-62
2021/03/27 14:03:24;;;;;;;;;;;16.20;60.90;;;;;;5089068;28;19926;-61
2021/03/27 14:06:09;;;;;;;;;;;16.00;57.30;;;;;;5064029;28;19916;-63
2021/03/27 14:08:34;;;;;;;;;;;16.00;57.60;;;;;;5069903;28;19916;-62
2021/03/27 14:11:20;;;;;;;;;;;15.40;61.20;;;;;;5083512;28;19912;-61
2021/03/27 14:14:18;;;;;;;;;;;15.40;60.50;;;;;;5003456;28;19933;-62
2021/03/27 14:16:43;;;;;;;;;;;16.00;57.10;;;;;;4975049;28;20017;-63
2021/03/27 14:19:19;;;;;;;;;;;16.20;59.90;;;;;;5001902;28;20008;-63
2021/03/27 14:22:03;;;;;;;;;;;15.00;57.70;;;;;;4987394;28;19948;-63
2021/03/27 14:24:37;;;;;;;;;;;15.20;58.10;;;;;;5007251;28;20566;-62
2021/03/27 14:27:15;;;;;;;;;;;15.30;57.80;;;;;;4982502;28;20368;-62
2021/03/27 14:29:51;;;;;;;;;;;15.20;57.30;;;;;;5001742;28;19928;-63
2021/03/27 14:32:31;;;;;;;;;;;15.50;57.90;;;;;;5005607;28;19967;-62
2021/03/27 14:35:15;;;;;;;;;;;15.40;57.50;;;;;;4985640;28;19924;-63
2021/03/27 14:37:44;;;;;;;;;;;15.40;57.70;;;;;;5002231;28;19917;-62
2021/03/27 14:40:28;;;;;;;;;;;15.40;60.70;;;;;;5003566;28;19921;-61
2021/03/27 14:43:14;;;;;;;;;;;15.60;56.90;;;;;;4985339;28;19922;-61
2021/03/27 14:45:39;;;;;;;;;;;15.60;59.40;;;;;;4957250;28;19928;-62
2021/03/27 14:48:23;;;;;;;;;;;15.60;59.30;;;;;;4983733;28;19917;-62
2021/03/27 14:51:21;;;;;;;;;;;15.10;56.20;;;;;;5044196;28;19912;-61
2021/03/27 14:53:47;;;;;;;;;;;14.80;56.50;;;;;;5052769;28;19919;-61
2021/03/27 14:56:21;;;;;;;;;;;14.30;60.70;;;;;;5080559;28;20267;-63
2021/03/27 14:58:55;;;;;;;;;;;13.80;57.80;;;;;;5082130;28;19916;-63
2021/03/27 15:01:27;;;;;;;;;;;13.70;58.40;;;;;;5085666;28;20019;-62
2021/03/27 15:04:09;;;;;;;;;;;13.50;58.30;;;;;;5079132;28;19920;-60
2021/03/27 15:06:38;;;;;;;;;;;12.80;59.50;;;;;;5083791;28;19920;-63
2021/03/27 15:09:05;;;;;;;;;;;13.00;60.20;;;;;;5086556;28;20009;-62
2021/03/27 15:11:50;;;;;;;;;;;13.10;64.70;;;;;;5085565;28;19912;-61
2021/03/27 15:14:38;;;;;;;;;;;13.00;61.10;;;;;;5089050;28;19920;-63
2021/03/27 15:17:04;;;;;;;;;;;13.30;61.10;;;;;;5072803;28;19916;-62